createdAt,value
2022-08-08T00:00:55.241Z,86.15
2022-08-08T00:02:03.733Z,86.50
2022-08-08T00:03:20.406Z,86.57
2022-08-08T00:04:31.239Z,86.36
2022-08-08T00:06:00.784Z,86.68
2022-08-08T00:07:16.046Z,86.86
2022-08-08T00:08:27.303Z,86.82
2022-08-08T00:09:54.541Z,87.02
2022-08-08T00:11:07.851Z,86.92
2022-08-08T00:12:23.624Z,87.17
2022-08-08T00:14:16.634Z,87.06
2022-08-08T00:15:04.994Z,87.50
2022-08-08T00:16:11.626Z,87.52
2022-08-08T00:17:23.289Z,87.63
2022-08-08T00:18:30.535Z,87.76
2022-08-08T00:19:42.102Z,87.67
2022-08-08T00:20:52.974Z,87.82
2022-08-08T00:22:01.882Z,87.83
2022-08-08T00:23:08.334Z,87.90
2022-08-08T00:24:16.248Z,87.61
2022-08-08T00:25:24.620Z,87.83
2022-08-08T00:26:35.621Z,87.73
2022-08-08T00:27:42.251Z,87.66
2022-08-08T00:28:49.944Z,87.61
2022-08-08T00:29:59.738Z,87.73
2022-08-08T00:32:20.678Z,87.60
2022-08-08T00:32:36.114Z,88.02
2022-08-08T00:34:18.534Z,88.23
2022-08-08T00:35:27.281Z,88.11
2022-08-08T00:36:36.275Z,88.32
2022-08-08T00:38:01.660Z,88.26
2022-08-08T00:41:06.825Z,88.30
2022-08-08T00:41:08.927Z,88.37
2022-08-08T00:42:42.621Z,88.16
2022-08-08T00:44:17.679Z,88.10
2022-08-08T00:45:49.734Z,88.59
2022-08-08T00:47:23.038Z,88.42
2022-08-08T00:48:59.166Z,88.56
2022-08-08T00:50:52.313Z,88.18
2022-08-08T00:52:24.870Z,88.60
2022-08-08T00:54:15.608Z,88.59
2022-08-08T00:55:53.726Z,88.06
2022-08-08T00:57:29.610Z,88.13
2022-08-08T00:59:08.190Z,88.14
2022-08-08T01:00:13.849Z,88.03
2022-08-08T01:01:37.930Z,88.23
2022-08-08T01:04:01.796Z,88.57
2022-08-08T01:05:59.483Z,88.52
2022-08-08T01:07:55.531Z,88.93
2022-08-08T01:09:35.590Z,88.97
2022-08-08T01:11:22.059Z,88.67
2022-08-08T01:13:43.934Z,88.53
2022-08-08T01:15:09.492Z,88.94
2022-08-08T01:16:52.995Z,89.02
2022-08-08T01:18:52.641Z,89.27
2022-08-08T01:20:35.272Z,89.47
2022-08-08T01:22:13.587Z,89.41
2022-08-08T01:24:05.678Z,89.37
2022-08-08T01:25:42.729Z,89.32
2022-08-08T01:27:32.992Z,89.11
2022-08-08T01:29:13.346Z,89.40
2022-08-08T01:31:00.149Z,89.33
2022-08-08T01:32:33.985Z,89.72
2022-08-08T01:34:20.428Z,89.71
2022-08-08T01:36:01.411Z,89.51
2022-08-08T01:37:57.647Z,89.74
2022-08-08T01:39:35.078Z,89.33
2022-08-08T01:40:54.560Z,89.55
2022-08-08T01:42:06.028Z,89.35
2022-08-08T01:43:38.759Z,89.83
2022-08-08T01:45:03.631Z,89.65
2022-08-08T01:46:29.923Z,89.24
2022-08-08T01:48:16.176Z,89.41
2022-08-08T01:49:37.546Z,89.22
2022-08-08T01:51:30.595Z,89.20
2022-08-08T01:55:17.604Z,89.36
2022-08-08T01:55:26.666Z,88.95
2022-08-08T01:56:28.109Z,89.21
2022-08-08T01:58:12.032Z,89.22
2022-08-08T01:59:10.745Z,89.11
2022-08-08T02:00:20.327Z,89.19
2022-08-08T02:01:59.718Z,89.16
2022-08-08T02:03:54.783Z,89.13
2022-08-08T02:04:57.582Z,89.62
2022-08-08T02:06:31.598Z,89.53
2022-08-08T02:07:51.158Z,89.41
2022-08-08T02:09:17.486Z,89.66
2022-08-08T02:10:45.218Z,90.09
2022-08-08T02:11:59.361Z,89.70
2022-08-08T02:13:54.296Z,89.73
2022-08-08T02:14:55.240Z,90.34
2022-08-08T02:16:21.130Z,90.35
2022-08-08T02:17:36.509Z,90.39
2022-08-08T02:18:58.712Z,90.70
2022-08-08T02:20:59.874Z,90.26
2022-08-08T02:22:02.733Z,90.38
2022-08-08T02:23:22.665Z,90.76
2022-08-08T02:24:29.618Z,90.36
2022-08-08T02:25:46.821Z,90.69
2022-08-08T02:26:55.383Z,90.86
2022-08-08T02:28:04.360Z,90.80
2022-08-08T02:29:24.705Z,91.07
2022-08-08T02:30:37.889Z,91.02
2022-08-08T02:32:22.283Z,90.99
2022-08-08T02:34:08.124Z,91.24
2022-08-08T02:36:04.395Z,90.88
2022-08-08T02:37:52.996Z,90.83
2022-08-08T02:38:56.086Z,91.14
2022-08-08T02:40:09.858Z,91.01
2022-08-08T02:42:04.487Z,91.17
2022-08-08T02:44:37.668Z,91.04
2022-08-08T02:45:24.643Z,91.21
2022-08-08T02:46:52.976Z,91.61
2022-08-08T02:48:28.763Z,91.25
2022-08-08T02:50:00.249Z,91.40
2022-08-08T02:51:55.461Z,91.61
2022-08-08T02:53:47.317Z,91.84
2022-08-08T02:55:19.912Z,91.86
2022-08-08T02:56:52.303Z,91.70
2022-08-08T02:58:43.442Z,92.23
2022-08-08T03:00:50.678Z,92.19
2022-08-08T03:02:22.149Z,91.91
2022-08-08T03:05:04.165Z,92.24
2022-08-08T03:06:24.067Z,91.97
2022-08-08T03:08:35.279Z,92.22
2022-08-08T03:10:17.686Z,92.03
2022-08-08T03:12:13.971Z,91.78
2022-08-08T03:15:56.482Z,92.00
2022-08-08T03:16:05.265Z,91.92
2022-08-08T03:17:20.016Z,92.11
2022-08-08T03:18:34.465Z,92.35
2022-08-08T03:19:58.601Z,92.48
2022-08-08T03:21:09.985Z,92.29
2022-08-08T03:22:38.766Z,92.63
2022-08-08T03:23:59.555Z,92.72
2022-08-08T03:25:04.872Z,92.52
2022-08-08T03:26:27.685Z,92.50
2022-08-08T03:27:41.875Z,92.57
2022-08-08T03:28:51.268Z,92.58
2022-08-08T03:30:02.345Z,92.81
2022-08-08T03:31:25.474Z,92.34
2022-08-08T03:32:56.906Z,92.62
2022-08-08T03:34:02.367Z,92.55
2022-08-08T03:35:09.442Z,92.62
2022-08-08T03:36:16.028Z,92.49
2022-08-08T03:38:54.074Z,92.19
2022-08-08T03:38:58.198Z,92.54
2022-08-08T03:40:29.960Z,92.08
2022-08-08T03:42:28.188Z,91.77
2022-08-08T03:43:18.059Z,91.92
2022-08-08T03:44:32.577Z,91.99
2022-08-08T03:46:05.705Z,91.97
2022-08-08T03:47:14.010Z,92.24
2022-08-08T03:49:09.582Z,92.05
2022-08-08T03:49:58.379Z,91.93
2022-08-08T03:51:08.933Z,91.48
2022-08-08T03:52:17.958Z,91.46
2022-08-08T03:53:38.067Z,91.42
2022-08-08T03:55:01.880Z,91.29
2022-08-08T03:56:11.461Z,91.80
2022-08-08T03:58:34.328Z,91.34
2022-08-08T03:58:59.237Z,91.45
2022-08-08T04:00:11.277Z,91.50
2022-08-08T04:02:12.698Z,91.18
2022-08-08T04:02:54.745Z,91.56
2022-08-08T04:04:01.979Z,91.49
2022-08-08T04:05:13.417Z,91.50
2022-08-08T04:06:17.454Z,91.51
2022-08-08T04:07:21.785Z,91.62
2022-08-08T04:08:33.241Z,91.50
2022-08-08T04:10:00.598Z,91.47
2022-08-08T04:11:11.316Z,91.18
2022-08-08T04:12:21.493Z,91.49
2022-08-08T04:13:25.796Z,91.35
2022-08-08T04:14:38.622Z,91.72
2022-08-08T04:15:54.376Z,91.63
2022-08-08T04:16:59.590Z,91.22
2022-08-08T04:18:01.829Z,91.75
2022-08-08T04:19:23.572Z,91.26
2022-08-08T04:20:31.860Z,91.63
2022-08-08T04:21:37.995Z,91.34
2022-08-08T04:22:44.794Z,91.50
2022-08-08T04:24:12.036Z,91.53
2022-08-08T04:25:18.019Z,91.55
2022-08-08T04:26:21.666Z,91.00
2022-08-08T04:28:01.915Z,91.38
2022-08-08T04:28:54.439Z,90.82
2022-08-08T04:30:00.856Z,91.30
2022-08-08T04:31:09.574Z,90.91
2022-08-08T04:32:30.948Z,90.79
2022-08-08T04:33:41.989Z,90.98
2022-08-08T04:34:55.655Z,90.99
2022-08-08T04:36:06.701Z,90.70
2022-08-08T04:37:09.701Z,90.53
2022-08-08T04:38:21.213Z,90.58
2022-08-08T04:39:48.088Z,90.75
2022-08-08T04:40:53.368Z,90.59
2022-08-08T04:41:59.028Z,90.81
2022-08-08T04:43:05.556Z,90.80
2022-08-08T04:44:16.952Z,90.41
2022-08-08T04:45:23.364Z,90.62
2022-08-08T04:46:31.030Z,90.64
2022-08-08T04:47:43.485Z,90.21
2022-08-08T04:48:51.836Z,90.25
2022-08-08T04:49:58.958Z,90.05
2022-08-08T04:51:27.937Z,89.67
2022-08-08T04:52:39.667Z,89.95
2022-08-08T04:54:36.504Z,89.46
2022-08-08T04:55:12.050Z,89.94
2022-08-08T04:56:14.863Z,89.79
2022-08-08T04:57:19.503Z,89.73
2022-08-08T04:58:23.107Z,89.13
2022-08-08T04:59:30.114Z,89.42
2022-08-08T05:00:33.979Z,89.27
2022-08-08T05:01:48.624Z,89.04
2022-08-08T05:02:53.880Z,88.88
2022-08-08T05:04:09.076Z,89.05
2022-08-08T05:05:20.372Z,88.87
2022-08-08T05:06:44.223Z,88.54
2022-08-08T05:07:47.669Z,88.38
2022-08-08T05:08:53.513Z,88.25
2022-08-08T05:09:58.910Z,88.35
2022-08-08T05:11:03.638Z,87.87
2022-08-08T05:12:07.064Z,88.24
2022-08-08T05:13:17.810Z,88.17
2022-08-08T05:14:21.172Z,88.12
2022-08-08T05:16:55.079Z,87.84
2022-08-08T05:17:00.949Z,87.43
2022-08-08T05:18:05.762Z,87.25
2022-08-08T05:20:11.573Z,87.27
2022-08-08T05:20:40.436Z,87.00
2022-08-08T05:21:58.210Z,86.91
2022-08-08T05:23:04.462Z,87.00
2022-08-08T05:24:10.636Z,86.45
2022-08-08T05:25:15.716Z,86.43
2022-08-08T05:26:19.987Z,86.33
2022-08-08T05:27:24.245Z,86.44
2022-08-08T05:28:56.745Z,85.88
2022-08-08T05:29:53.520Z,86.02
2022-08-08T05:31:19.209Z,85.92
2022-08-08T05:32:27.314Z,86.04
2022-08-08T05:33:48.539Z,86.13
2022-08-08T05:34:54.794Z,85.89
2022-08-08T05:36:02.385Z,85.89
2022-08-08T05:37:07.619Z,85.93
2022-08-08T05:38:32.057Z,85.92
2022-08-08T05:39:46.538Z,86.24
2022-08-08T05:40:57.889Z,86.13
2022-08-08T05:42:03.148Z,86.39
2022-08-08T05:43:39.458Z,86.35
2022-08-08T05:44:45.991Z,86.20
2022-08-08T05:46:03.035Z,86.56
2022-08-08T05:47:09.214Z,86.40
2022-08-08T05:48:16.953Z,86.78
2022-08-08T05:49:32.858Z,86.76
2022-08-08T05:50:42.113Z,86.54
2022-08-08T05:51:50.493Z,86.49
2022-08-08T05:53:22.953Z,86.46
2022-08-08T05:54:27.740Z,86.38
2022-08-08T05:56:11.071Z,86.34
2022-08-08T05:57:57.869Z,86.49
2022-08-08T05:58:53.903Z,86.29
2022-08-08T06:00:25.374Z,85.81
2022-08-08T06:01:57.437Z,85.60
2022-08-08T06:03:13.110Z,84.93
2022-08-08T06:04:26.702Z,84.88
2022-08-08T06:05:36.383Z,84.25
2022-08-08T06:06:50.251Z,83.66
2022-08-08T06:08:03.074Z,83.56
2022-08-08T06:09:59.105Z,83.06
2022-08-08T06:10:39.541Z,82.75
2022-08-08T06:11:46.800Z,82.66
2022-08-08T06:12:51.300Z,81.89
2022-08-08T06:13:54.908Z,81.81
2022-08-08T06:15:00.132Z,81.56
2022-08-08T06:16:05.169Z,80.80
2022-08-08T06:17:32.225Z,80.42
2022-08-08T06:18:54.416Z,80.21
2022-08-08T06:19:58.543Z,80.20
2022-08-08T06:21:03.370Z,79.83
2022-08-08T06:23:53.198Z,79.68
2022-08-08T06:25:03.685Z,79.45
2022-08-08T06:26:38.774Z,79.64
2022-08-08T06:27:48.336Z,79.52
2022-08-08T06:28:54.413Z,79.22
2022-08-08T06:30:03.888Z,79.40
2022-08-08T06:31:19.869Z,78.93
2022-08-08T06:32:30.151Z,78.76
2022-08-08T06:34:25.670Z,79.09
2022-08-08T06:35:30.735Z,78.72
2022-08-08T06:36:53.031Z,78.19
2022-08-08T06:38:00.674Z,77.87
2022-08-08T06:39:09.951Z,77.48
2022-08-08T06:40:16.930Z,76.94
2022-08-08T06:41:21.157Z,76.60
2022-08-08T06:42:29.541Z,76.38
2022-08-08T06:43:37.515Z,76.28
2022-08-08T06:44:54.098Z,75.83
2022-08-08T06:45:57.489Z,75.80
2022-08-08T06:47:02.325Z,75.59
2022-08-08T06:48:07.024Z,75.71
2022-08-08T06:49:12.957Z,75.76
2022-08-08T06:50:31.408Z,75.30
2022-08-08T06:51:46.864Z,75.70
2022-08-08T06:52:58.641Z,75.63
2022-08-08T06:54:03.098Z,75.59
2022-08-08T06:55:10.142Z,75.10
2022-08-08T06:56:16.656Z,75.17
2022-08-08T06:57:19.637Z,75.17
2022-08-08T06:58:23.135Z,75.15
2022-08-08T07:00:09.867Z,75.32
2022-08-08T07:01:11.493Z,75.34
2022-08-08T07:02:29.658Z,75.14
2022-08-08T07:03:52.055Z,75.21
2022-08-08T07:05:21.047Z,74.89
2022-08-08T07:06:34.415Z,74.69
2022-08-08T07:07:59.572Z,74.80
2022-08-08T07:09:15.187Z,74.60
2022-08-08T07:10:22.663Z,74.68
2022-08-08T07:11:46.063Z,74.77
2022-08-08T07:12:55.069Z,74.84
2022-08-08T07:14:08.659Z,74.81
2022-08-08T07:15:23.413Z,74.74
2022-08-08T07:16:51.325Z,74.79
2022-08-08T07:18:35.668Z,74.61
2022-08-08T07:19:38.472Z,74.79
2022-08-08T07:20:50.413Z,74.45
2022-08-08T07:22:04.986Z,74.37
2022-08-08T07:23:16.318Z,74.28
2022-08-08T07:24:34.461Z,74.33
2022-08-08T07:25:44.147Z,73.99
2022-08-08T07:27:00.380Z,73.72
2022-08-08T07:28:19.531Z,73.73
2022-08-08T07:30:00.411Z,73.51
2022-08-08T07:30:49.854Z,73.58
2022-08-08T07:31:53.012Z,73.72
2022-08-08T07:33:01.429Z,73.74
2022-08-08T07:34:09.163Z,73.90
2022-08-08T07:35:14.745Z,73.81
2022-08-08T07:36:23.101Z,73.87
2022-08-08T07:37:55.408Z,73.47
2022-08-08T07:38:53.545Z,73.12
2022-08-08T07:39:59.910Z,72.80
2022-08-08T07:41:23.747Z,72.49
2022-08-08T07:42:33.489Z,72.45
2022-08-08T07:43:42.236Z,72.03
2022-08-08T07:44:53.692Z,72.13
2022-08-08T07:46:18.359Z,72.06
2022-08-08T07:47:38.365Z,71.62
2022-08-08T07:48:45.585Z,71.49
2022-08-08T07:49:49.359Z,71.25
2022-08-08T07:50:58.733Z,70.91
2022-08-08T07:52:05.123Z,70.52
2022-08-08T07:53:52.242Z,70.19
2022-08-08T07:54:48.893Z,69.69
2022-08-08T07:55:53.022Z,69.24
2022-08-08T07:57:08.991Z,68.92
2022-08-08T07:58:20.112Z,68.22
2022-08-08T07:59:25.942Z,67.46
2022-08-08T08:00:40.046Z,67.55
2022-08-08T08:02:33.481Z,66.92
2022-08-08T08:03:28.517Z,66.50
2022-08-08T08:04:41.056Z,65.83
2022-08-08T08:05:50.805Z,64.48
2022-08-08T08:06:59.920Z,63.99
2022-08-08T08:08:06.399Z,63.71
2022-08-08T08:09:24.043Z,63.86
2022-08-08T08:10:35.625Z,63.52
2022-08-08T08:11:53.888Z,63.64
2022-08-08T08:13:25.497Z,63.80
2022-08-08T08:15:02.995Z,63.53
2022-08-08T08:16:12.035Z,62.90
2022-08-08T08:17:21.467Z,62.44
2022-08-08T08:18:31.932Z,62.20
2022-08-08T08:19:45.624Z,62.18
2022-08-08T08:20:54.289Z,61.91
2022-08-08T08:22:00.631Z,62.05
2022-08-08T08:23:27.567Z,61.97
2022-08-08T08:24:32.513Z,61.63
2022-08-08T08:25:51.147Z,61.40
2022-08-08T08:26:56.386Z,60.92
2022-08-08T08:27:59.446Z,60.37
2022-08-08T08:29:06.589Z,59.48
2022-08-08T08:30:11.420Z,59.46
2022-08-08T08:31:17.471Z,59.88
2022-08-08T08:32:31.518Z,59.92
2022-08-08T08:33:41.654Z,59.60
2022-08-08T08:34:49.293Z,59.24
2022-08-08T08:36:20.374Z,58.75
2022-08-08T08:37:21.143Z,58.98
2022-08-08T08:38:27.453Z,59.06
2022-08-08T08:39:59.851Z,58.82
2022-08-08T08:41:01.194Z,59.34
2022-08-08T08:42:10.316Z,58.85
2022-08-08T08:43:18.741Z,58.63
2022-08-08T08:44:23.684Z,58.75
2022-08-08T08:45:32.086Z,58.91
2022-08-08T08:46:39.042Z,59.41
2022-08-08T08:47:46.420Z,59.31
2022-08-08T08:48:52.533Z,59.68
2022-08-08T08:49:56.531Z,59.96
2022-08-08T08:51:03.283Z,59.69
2022-08-08T08:52:06.986Z,60.00
2022-08-08T08:53:28.349Z,60.22
2022-08-08T08:54:45.893Z,60.64
2022-08-08T08:55:51.099Z,60.26
2022-08-08T08:56:57.353Z,60.26
2022-08-08T08:58:00.998Z,60.73
2022-08-08T08:59:05.538Z,60.85
2022-08-08T09:00:17.035Z,60.80
2022-08-08T09:01:23.879Z,60.95
2022-08-08T09:02:30.618Z,60.73
2022-08-08T09:03:46.787Z,60.80
2022-08-08T09:04:57.327Z,61.11
2022-08-08T09:06:02.126Z,60.92
2022-08-08T09:07:12.129Z,60.99
2022-08-08T09:08:21.020Z,60.85
2022-08-08T09:09:38.832Z,60.93
2022-08-08T09:10:52.966Z,60.58
2022-08-08T09:12:01.369Z,60.88
2022-08-08T09:13:09.565Z,60.63
2022-08-08T09:14:13.136Z,60.77
2022-08-08T09:15:24.172Z,59.36
2022-08-08T09:16:40.828Z,60.37
2022-08-08T09:17:52.407Z,60.37
2022-08-08T09:19:00.865Z,60.33
2022-08-08T09:21:58.260Z,60.63
2022-08-08T09:22:00.134Z,60.68
2022-08-08T09:22:58.692Z,60.19
2022-08-08T09:24:04.100Z,60.19
2022-08-08T09:25:10.363Z,60.02
2022-08-08T09:26:21.576Z,60.04
2022-08-08T09:27:57.032Z,60.35
2022-08-08T09:28:48.790Z,60.38
2022-08-08T09:30:03.167Z,60.44
2022-08-08T09:31:13.246Z,60.97
2022-08-08T09:32:31.244Z,60.77
2022-08-08T09:34:15.932Z,60.50
2022-08-08T09:35:08.137Z,60.52
2022-08-08T09:36:19.176Z,60.18
2022-08-08T09:38:01.110Z,59.90
2022-08-08T09:39:01.569Z,59.91
2022-08-08T09:40:11.396Z,59.73
2022-08-08T09:41:19.235Z,60.09
2022-08-08T09:42:26.077Z,60.00
2022-08-08T09:44:05.714Z,59.98
2022-08-08T09:45:15.743Z,59.72
2022-08-08T09:46:32.146Z,59.77
2022-08-08T09:48:11.474Z,59.48
2022-08-08T09:49:17.977Z,59.11
2022-08-08T09:50:28.129Z,59.04
2022-08-08T09:51:41.475Z,59.06
2022-08-08T09:53:02.265Z,59.41
2022-08-08T09:54:36.847Z,59.05
2022-08-08T09:56:04.242Z,59.28
2022-08-08T09:57:16.501Z,59.06
2022-08-08T09:58:28.013Z,58.76
2022-08-08T10:00:02.114Z,57.91
2022-08-08T10:02:02.230Z,57.86
2022-08-08T10:02:47.147Z,57.70
2022-08-08T10:03:56.162Z,58.12
2022-08-08T10:05:10.320Z,57.77
2022-08-08T10:06:19.887Z,57.86
2022-08-08T10:07:36.000Z,57.90
2022-08-08T10:08:51.858Z,57.61
2022-08-08T10:09:59.984Z,57.83
2022-08-08T10:11:12.080Z,57.81
2022-08-08T10:12:37.925Z,58.16
2022-08-08T10:13:57.605Z,58.03
2022-08-08T10:15:01.592Z,58.36
2022-08-08T10:16:05.902Z,58.28
2022-08-08T10:17:57.478Z,58.11
2022-08-08T10:18:34.987Z,58.49
2022-08-08T10:19:46.309Z,58.25
2022-08-08T10:21:23.191Z,57.98
2022-08-08T10:22:29.693Z,57.66
2022-08-08T10:23:44.106Z,57.71
2022-08-08T10:24:55.229Z,57.73
2022-08-08T10:25:58.730Z,57.74
2022-08-08T10:27:04.302Z,57.72
2022-08-08T10:28:09.848Z,57.07
2022-08-08T10:29:21.142Z,57.12
2022-08-08T10:31:00.232Z,57.08
2022-08-08T10:32:08.177Z,57.32
2022-08-08T10:33:12.333Z,56.89
2022-08-08T10:34:19.616Z,56.38
2022-08-08T10:36:09.452Z,55.45
2022-08-08T10:36:51.483Z,55.55
2022-08-08T10:37:57.351Z,55.52
2022-08-08T10:39:03.824Z,55.27
2022-08-08T10:40:19.706Z,55.02
2022-08-08T10:41:25.619Z,54.78
2022-08-08T10:42:43.604Z,54.37
2022-08-08T10:43:50.697Z,54.60
2022-08-08T10:45:02.038Z,54.94
2022-08-08T10:46:05.261Z,55.13
2022-08-08T10:47:30.490Z,55.50
2022-08-08T10:48:56.886Z,55.59
2022-08-08T10:50:04.646Z,55.68
2022-08-08T10:51:13.336Z,55.76
2022-08-08T10:52:23.811Z,56.34
2022-08-08T10:53:56.269Z,56.30
2022-08-08T10:55:05.219Z,56.40
2022-08-08T10:56:27.605Z,56.51
2022-08-08T10:57:50.049Z,56.44
2022-08-08T10:58:59.090Z,56.73
2022-08-08T11:00:01.402Z,57.11
2022-08-08T11:01:11.654Z,57.23
2022-08-08T11:02:15.106Z,57.51
2022-08-08T11:03:37.224Z,57.67
2022-08-08T11:04:53.547Z,57.20
2022-08-08T11:06:00.462Z,57.35
2022-08-08T11:07:03.429Z,57.17
2022-08-08T11:08:38.100Z,56.89
2022-08-08T11:09:32.386Z,56.50
2022-08-08T11:10:34.842Z,55.89
2022-08-08T11:12:06.126Z,55.63
2022-08-08T11:14:25.817Z,55.49
2022-08-08T11:15:31.484Z,55.42
2022-08-08T11:16:35.596Z,54.78
2022-08-08T11:17:58.555Z,54.49
2022-08-08T11:19:05.840Z,54.53
2022-08-08T11:20:17.922Z,54.27
2022-08-08T11:21:22.148Z,53.39
2022-08-08T11:22:40.039Z,52.56
2022-08-08T11:23:44.021Z,51.51
2022-08-08T11:24:49.035Z,50.85
2022-08-08T11:25:57.131Z,50.81
2022-08-08T11:27:19.906Z,50.76
2022-08-08T11:28:29.596Z,50.66
2022-08-08T11:29:50.766Z,50.65
2022-08-08T11:31:00.811Z,50.71
2022-08-08T11:32:07.910Z,50.96
2022-08-08T11:33:12.951Z,50.52
2022-08-08T11:34:22.793Z,50.67
2022-08-08T11:35:38.268Z,50.62
2022-08-08T11:36:51.080Z,49.53
2022-08-08T11:38:39.646Z,48.73
2022-08-08T11:39:20.005Z,48.96
2022-08-08T11:40:26.539Z,48.44
2022-08-08T11:41:32.280Z,48.40
2022-08-08T11:42:40.428Z,48.22
2022-08-08T11:43:48.863Z,48.28
2022-08-08T11:44:55.234Z,47.48
2022-08-08T11:46:11.869Z,47.79
2022-08-08T11:47:21.070Z,47.41
2022-08-08T11:48:27.846Z,47.63
2022-08-08T11:49:32.277Z,47.71
2022-08-08T11:50:35.328Z,47.16
2022-08-08T11:51:50.464Z,46.93
2022-08-08T11:52:57.818Z,47.04
2022-08-08T11:54:02.377Z,46.64
2022-08-08T11:55:17.444Z,46.35
2022-08-08T11:56:23.918Z,46.43
2022-08-08T11:57:30.289Z,46.36
2022-08-08T11:58:39.023Z,46.79
2022-08-08T12:00:01.939Z,46.57
2022-08-08T12:01:18.629Z,46.68
2022-08-08T12:02:33.899Z,46.53
2022-08-08T12:03:37.866Z,46.69
2022-08-08T12:04:40.299Z,46.50
2022-08-08T12:05:45.727Z,46.15
2022-08-08T12:06:49.290Z,46.20
2022-08-08T12:07:55.823Z,46.08
2022-08-08T12:09:06.393Z,46.55
2022-08-08T12:10:13.604Z,46.28
2022-08-08T12:11:26.961Z,45.97
2022-08-08T12:12:42.104Z,45.78
2022-08-08T12:14:03.907Z,45.70
2022-08-08T12:15:09.590Z,45.44
2022-08-08T12:16:15.594Z,46.03
2022-08-08T12:17:18.005Z,46.14
2022-08-08T12:18:25.245Z,46.24
2022-08-08T12:19:37.739Z,46.65
2022-08-08T12:20:54.280Z,46.96
2022-08-08T12:22:12.955Z,46.90
2022-08-08T12:23:40.200Z,47.18
2022-08-08T12:24:54.120Z,47.37
2022-08-08T12:26:10.682Z,46.17
2022-08-08T12:27:20.840Z,46.92
2022-08-08T12:28:23.642Z,46.69
2022-08-08T12:29:42.151Z,46.84
2022-08-08T12:30:48.153Z,46.59
2022-08-08T12:32:09.319Z,47.68
2022-08-08T12:33:20.728Z,46.65
2022-08-08T12:34:36.384Z,46.63
2022-08-08T12:35:41.142Z,46.83
2022-08-08T12:37:05.332Z,46.35
2022-08-08T12:38:17.855Z,45.78
2022-08-08T12:40:01.818Z,45.69
2022-08-08T12:40:56.004Z,44.97
2022-08-08T12:42:01.804Z,44.64
2022-08-08T12:43:08.137Z,44.26
2022-08-08T12:44:14.261Z,44.58
2022-08-08T12:45:58.329Z,43.63
2022-08-08T12:47:09.063Z,43.93
2022-08-08T12:48:36.460Z,43.75
2022-08-08T12:49:45.129Z,43.66
2022-08-08T12:50:50.542Z,43.64
2022-08-08T12:51:58.516Z,43.67
2022-08-08T12:53:18.829Z,42.87
2022-08-08T12:54:25.295Z,43.37
2022-08-08T12:55:29.247Z,42.97
2022-08-08T12:56:47.832Z,42.69
2022-08-08T12:57:56.605Z,42.43
2022-08-08T12:59:00.725Z,42.27
2022-08-08T13:00:13.613Z,42.11
2022-08-08T13:01:24.585Z,42.73
2022-08-08T13:02:42.271Z,42.91
2022-08-08T13:03:53.677Z,43.23
2022-08-08T13:04:59.285Z,43.19
2022-08-08T13:06:13.917Z,42.48
2022-08-08T13:07:17.863Z,42.68
2022-08-08T13:08:53.757Z,42.37
2022-08-08T13:10:05.207Z,42.45
2022-08-08T13:11:17.860Z,42.92
2022-08-08T13:12:34.296Z,43.01
2022-08-08T13:13:38.647Z,43.27
2022-08-08T13:14:52.867Z,43.04
2022-08-08T13:15:56.282Z,43.35
2022-08-08T13:17:01.506Z,43.56
2022-08-08T13:18:10.589Z,43.35
2022-08-08T13:19:20.328Z,44.29
2022-08-08T13:20:27.467Z,44.43
2022-08-08T13:21:49.171Z,44.86
2022-08-08T13:23:26.791Z,45.12
2022-08-08T13:24:18.999Z,46.00
2022-08-08T13:25:40.301Z,46.69
2022-08-08T13:26:43.277Z,46.90
2022-08-08T13:27:54.578Z,47.89
2022-08-08T13:28:59.264Z,48.03
2022-08-08T13:30:05.880Z,47.67
2022-08-08T13:31:16.151Z,47.48
2022-08-08T13:32:23.879Z,47.95
2022-08-08T13:33:27.799Z,47.57
2022-08-08T13:34:49.520Z,48.05
2022-08-08T13:35:55.546Z,48.11
2022-08-08T13:37:00.111Z,48.08
2022-08-08T13:38:06.815Z,48.43
2022-08-08T13:39:11.493Z,49.24
2022-08-08T13:40:17.879Z,49.43
2022-08-08T13:41:39.614Z,49.55
2022-08-08T13:42:52.955Z,49.79
2022-08-08T13:43:55.274Z,50.01
2022-08-08T13:45:02.372Z,50.21
2022-08-08T13:46:26.533Z,50.66
2022-08-08T13:47:32.678Z,50.71
2022-08-08T13:48:44.773Z,50.56
2022-08-08T13:50:35.883Z,50.84
2022-08-08T13:51:37.637Z,50.51
2022-08-08T13:52:48.217Z,50.69
2022-08-08T13:53:53.415Z,50.52
2022-08-08T13:55:07.572Z,50.64
2022-08-08T13:56:11.468Z,50.95
2022-08-08T13:57:17.624Z,50.92
2022-08-08T13:58:57.914Z,51.10
2022-08-08T14:00:09.045Z,51.59
2022-08-08T14:01:18.473Z,51.49
2022-08-08T14:02:30.938Z,51.86
2022-08-08T14:03:52.585Z,51.99
2022-08-08T14:05:04.986Z,52.27
2022-08-08T14:06:33.272Z,52.12
2022-08-08T14:07:38.503Z,52.29
2022-08-08T14:08:45.839Z,52.35
2022-08-08T14:10:05.314Z,52.51
2022-08-08T14:11:12.850Z,52.29
2022-08-08T14:12:18.394Z,51.95
2022-08-08T14:13:30.596Z,52.26
2022-08-08T14:14:39.680Z,52.26
2022-08-08T14:15:46.135Z,52.70
2022-08-08T14:16:52.851Z,52.71
2022-08-08T14:18:36.841Z,52.81
2022-08-08T14:19:55.621Z,52.07
2022-08-08T14:21:03.655Z,51.92
2022-08-08T14:22:20.172Z,52.15
2022-08-08T14:24:06.735Z,52.11
2022-08-08T14:24:59.641Z,51.87
2022-08-08T14:26:10.646Z,51.95
2022-08-08T14:27:19.574Z,52.25
2022-08-08T14:28:30.695Z,52.32
2022-08-08T14:29:40.331Z,51.99
2022-08-08T14:30:50.028Z,52.45
2022-08-08T14:32:08.733Z,52.17
2022-08-08T14:33:27.783Z,52.60
2022-08-08T14:34:42.066Z,52.45
2022-08-08T14:35:49.483Z,52.98
2022-08-08T14:36:54.332Z,53.35
2022-08-08T14:38:06.032Z,52.92
2022-08-08T14:39:19.162Z,53.01
2022-08-08T14:40:24.388Z,52.78
2022-08-08T14:41:54.107Z,52.69
2022-08-08T14:42:56.537Z,52.93
2022-08-08T14:44:09.974Z,52.68
2022-08-08T14:45:18.341Z,52.87
2022-08-08T14:46:33.034Z,53.50
2022-08-08T14:47:47.252Z,53.16
2022-08-08T14:48:59.109Z,53.54
2022-08-08T14:50:15.039Z,53.17
2022-08-08T14:51:23.437Z,53.34
2022-08-08T14:52:25.851Z,53.88
2022-08-08T14:53:37.289Z,53.33
2022-08-08T14:54:58.456Z,53.21
2022-08-08T14:56:04.558Z,52.66
2022-08-08T14:57:06.778Z,52.77
2022-08-08T14:58:16.481Z,52.78
2022-08-08T14:59:44.665Z,52.74
2022-08-08T15:00:46.033Z,52.64
2022-08-08T15:01:51.408Z,52.41
2022-08-08T15:02:58.798Z,52.52
2022-08-08T15:04:18.550Z,52.44
2022-08-08T15:05:42.763Z,52.49
2022-08-08T15:06:46.499Z,52.67
2022-08-08T15:07:59.980Z,52.82
2022-08-08T15:09:08.020Z,52.93
2022-08-08T15:10:12.762Z,52.85
2022-08-08T15:11:19.200Z,52.55
2022-08-08T15:12:27.219Z,52.45
2022-08-08T15:13:39.906Z,52.50
2022-08-08T15:14:44.582Z,52.07
2022-08-08T15:16:02.521Z,52.08
2022-08-08T15:17:05.883Z,51.90
2022-08-08T15:18:11.817Z,51.80
2022-08-08T15:19:14.896Z,51.50
2022-08-08T15:20:18.972Z,51.46
2022-08-08T15:21:22.628Z,51.84
2022-08-08T15:22:31.619Z,51.36
2022-08-08T15:23:35.967Z,51.80
2022-08-08T15:24:39.184Z,51.81
2022-08-08T15:25:41.370Z,51.59
2022-08-08T15:26:52.348Z,51.89
2022-08-08T15:28:03.709Z,51.99
2022-08-08T15:29:19.712Z,51.89
2022-08-08T15:30:25.005Z,51.24
2022-08-08T15:32:03.867Z,51.20
2022-08-08T15:32:53.088Z,51.39
2022-08-08T15:33:58.586Z,51.32
2022-08-08T15:35:04.401Z,51.31
2022-08-08T15:36:09.525Z,51.26
2022-08-08T15:37:14.237Z,51.29
2022-08-08T15:38:20.394Z,50.92
2022-08-08T15:39:23.667Z,51.09
2022-08-08T15:40:29.022Z,50.90
2022-08-08T15:41:43.670Z,51.11
2022-08-08T15:42:49.734Z,50.96
2022-08-08T15:44:00.804Z,51.31
2022-08-08T15:45:05.068Z,50.91
2022-08-08T15:46:07.215Z,50.43
2022-08-08T15:47:15.908Z,50.42
2022-08-08T15:48:22.388Z,50.24
2022-08-08T15:49:26.644Z,50.07
2022-08-08T15:50:47.313Z,49.80
2022-08-08T15:51:54.438Z,48.55
2022-08-08T15:52:58.741Z,49.47
2022-08-08T15:54:01.966Z,49.27
2022-08-08T15:55:05.741Z,49.22
2022-08-08T15:56:12.735Z,48.60
2022-08-08T15:57:16.890Z,48.50
2022-08-08T15:58:20.722Z,49.04
2022-08-08T16:00:06.292Z,48.44
2022-08-08T16:00:54.842Z,48.34
2022-08-08T16:02:00.262Z,48.64
2022-08-08T16:03:04.061Z,48.39
2022-08-08T16:04:06.283Z,48.58
2022-08-08T16:05:15.648Z,48.49
2022-08-08T16:06:27.675Z,48.86
2022-08-08T16:07:51.864Z,48.99
2022-08-08T16:09:02.406Z,48.97
2022-08-08T16:13:05.465Z,48.94
2022-08-08T16:13:05.474Z,49.09
2022-08-08T16:13:43.893Z,49.04
2022-08-08T16:14:32.643Z,49.25
2022-08-08T16:15:35.333Z,49.33
2022-08-08T16:17:08.267Z,49.42